sensor_id;sensor_type;location;lat;lon;timestamp;P1;durP1;ratioP1;P2;durP2;ratioP2
20802;SDS011;10562;-33.856;151.182;2023-05-07T00:00:24;4.85;;;3.25;;
20802;SDS011;10562;-33.856;151.182;2023-05-07T00:02:54;4.60;;;3.65;;
20802;SDS011;10562;-33.856;151.182;2023-05-07T00:05:25;4.55;;;4.10;;
20802;SDS011;10562;-33.856;151.182;2023-05-07T00:07:56;4.82;;;4.20;;
20802;SDS011;10562;-33.856;151.182;2023-05-07T00:10:27;4.75;;;4.32;;
20802;SDS011;10562;-33.856;151.182;2023-05-07T00:13:00;5.22;;;4.63;;
20802;SDS011;10562;-33.856;151.182;2023-05-07T00:15:31;6.20;;;5.60;;
20802;SDS011;10562;-33.856;151.182;2023-05-07T00:18:02;6.20;;;5.60;;
20802;SDS011;10562;-33.856;151.182;2023-05-07T00:20:33;9.43;;;6.25;;
20802;SDS011;10562;-33.856;151.182;2023-05-07T00:23:03;6.88;;;6.35;;
20802;SDS011;10562;-33.856;151.182;2023-05-07T00:25:34;6.80;;;6.20;;
20802;SDS011;10562;-33.856;151.182;2023-05-07T00:28:07;7.57;;;6.93;;
20802;SDS011;10562;-33.856;151.182;2023-05-07T00:30:37;7.47;;;6.53;;
20802;SDS011;10562;-33.856;151.182;2023-05-07T00:33:08;7.97;;;7.18;;
20802;SDS011;10562;-33.856;151.182;2023-05-07T00:35:39;9.80;;;8.40;;
20802;SDS011;10562;-33.856;151.182;2023-05-07T00:38:10;8.07;;;7.32;;
20802;SDS011;10562;-33.856;151.182;2023-05-07T00:40:41;9.73;;;8.82;;
20802;SDS011;10562;-33.856;151.182;2023-05-07T00:43:15;12.45;;;11.30;;
20802;SDS011;10562;-33.856;151.182;2023-05-07T00:45:46;10.40;;;9.50;;
20802;SDS011;10562;-33.856;151.182;2023-05-07T00:48:17;9.60;;;8.70;;
20802;SDS011;10562;-33.856;151.182;2023-05-07T00:50:47;9.73;;;8.82;;
20802;SDS011;10562;-33.856;151.182;2023-05-07T00:53:18;9.80;;;8.80;;
20802;SDS011;10562;-33.856;151.182;2023-05-07T00:55:51;11.40;;;10.30;;
20802;SDS011;10562;-33.856;151.182;2023-05-07T00:58:23;13.20;;;11.38;;
20802;SDS011;10562;-33.856;151.182;2023-05-07T01:00:54;9.63;;;8.60;;
20802;SDS011;10562;-33.856;151.182;2023-05-07T01:03:26;11.25;;;9.27;;
20802;SDS011;10562;-33.856;151.182;2023-05-07T01:05:57;10.65;;;9.55;;
20802;SDS011;10562;-33.856;151.182;2023-05-07T01:08:30;11.40;;;10.25;;
20802;SDS011;10562;-33.856;151.182;2023-05-07T01:11:02;14.63;;;11.60;;
20802;SDS011;10562;-33.856;151.182;2023-05-07T01:13:36;14.75;;;12.95;;
20802;SDS011;10562;-33.856;151.182;2023-05-07T01:16:08;8.95;;;8.15;;
20802;SDS011;10562;-33.856;151.182;2023-05-07T01:18:39;6.07;;;5.57;;
20802;SDS011;10562;-33.856;151.182;2023-05-07T01:21:10;9.43;;;8.15;;
20802;SDS011;10562;-33.856;151.182;2023-05-07T01:23:44;9.85;;;8.15;;
20802;SDS011;10562;-33.856;151.182;2023-05-07T01:26:16;7.80;;;7.20;;
20802;SDS011;10562;-33.856;151.182;2023-05-07T01:28:48;8.70;;;7.80;;
20802;SDS011;10562;-33.856;151.182;2023-05-07T01:31:19;7.35;;;6.75;;
20802;SDS011;10562;-33.856;151.182;2023-05-07T01:33:51;6.10;;;5.60;;
20802;SDS011;10562;-33.856;151.182;2023-05-07T01:36:23;6.70;;;6.20;;
20802;SDS011;10562;-33.856;151.182;2023-05-07T01:38:58;7.43;;;6.82;;
20802;SDS011;10562;-33.856;151.182;2023-05-07T01:41:30;6.70;;;6.20;;
20802;SDS011;10562;-33.856;151.182;2023-05-07T01:44:01;5.82;;;5.40;;
20802;SDS011;10562;-33.856;151.182;2023-05-07T01:46:35;6.10;;;5.60;;
20802;SDS011;10562;-33.856;151.182;2023-05-07T01:49:06;6.90;;;6.30;;
20802;SDS011;10562;-33.856;151.182;2023-05-07T01:51:37;6.57;;;5.97;;
20802;SDS011;10562;-33.856;151.182;2023-05-07T01:54:11;6.93;;;6.22;;
20802;SDS011;10562;-33.856;151.182;2023-05-07T01:56:42;5.53;;;5.05;;
20802;SDS011;10562;-33.856;151.182;2023-05-07T01:59:14;5.82;;;5.22;;
20802;SDS011;10562;-33.856;151.182;2023-05-07T02:01:44;6.35;;;5.32;;
20802;SDS011;10562;-33.856;151.182;2023-05-07T02:04:15;6.10;;;5.60;;
20802;SDS011;10562;-33.856;151.182;2023-05-07T02:06:46;5.97;;;5.47;;
20802;SDS011;10562;-33.856;151.182;2023-05-07T02:09:19;7.28;;;5.85;;
20802;SDS011;10562;-33.856;151.182;2023-05-07T02:11:50;5.97;;;5.47;;
20802;SDS011;10562;-33.856;151.182;2023-05-07T02:14:20;6.00;;;5.40;;
20802;SDS011;10562;-33.856;151.182;2023-05-07T02:16:52;6.22;;;5.28;;
20802;SDS011;10562;-33.856;151.182;2023-05-07T02:19:22;6.00;;;5.60;;
20802;SDS011;10562;-33.856;151.182;2023-05-07T02:21:53;5.60;;;5.10;;
20802;SDS011;10562;-33.856;151.182;2023-05-07T02:24:26;6.60;;;5.90;;
20802;SDS011;10562;-33.856;151.182;2023-05-07T02:26:57;7.20;;;6.60;;
20802;SDS011;10562;-33.856;151.182;2023-05-07T02:29:28;6.10;;;5.55;;
20802;SDS011;10562;-33.856;151.182;2023-05-07T02:31:59;7.68;;;4.70;;
20802;SDS011;10562;-33.856;151.182;2023-05-07T02:34:30;3.80;;;3.45;;
20802;SDS011;10562;-33.856;151.182;2023-05-07T02:37:01;2.60;;;2.40;;
20802;SDS011;10562;-33.856;151.182;2023-05-07T02:39:34;2.40;;;1.80;;
20802;SDS011;10562;-33.856;151.182;2023-05-07T02:42:04;1.70;;;1.50;;
20802;SDS011;10562;-33.856;151.182;2023-05-07T02:44:35;2.50;;;1.10;;
20802;SDS011;10562;-33.856;151.182;2023-05-07T02:47:06;1.40;;;0.93;;
20802;SDS011;10562;-33.856;151.182;2023-05-07T02:49:39;1.50;;;0.90;;
20802;SDS011;10562;-33.856;151.182;2023-05-07T02:52:09;2.03;;;1.10;;
20802;SDS011;10562;-33.856;151.182;2023-05-07T02:54:42;2.15;;;1.08;;
20802;SDS011;10562;-33.856;151.182;2023-05-07T02:57:13;2.35;;;1.25;;
20802;SDS011;10562;-33.856;151.182;2023-05-07T02:59:44;2.50;;;1.20;;
20802;SDS011;10562;-33.856;151.182;2023-05-07T03:02:14;1.95;;;1.10;;
20802;SDS011;10562;-33.856;151.182;2023-05-07T03:04:45;3.20;;;0.80;;
20802;SDS011;10562;-33.856;151.182;2023-05-07T03:07:16;1.52;;;0.63;;
20802;SDS011;10562;-33.856;151.182;2023-05-07T03:09:48;2.45;;;0.80;;
20802;SDS011;10562;-33.856;151.182;2023-05-07T03:12:19;10.38;;;1.10;;
20802;SDS011;10562;-33.856;151.182;2023-05-07T03:14:50;8.43;;;1.25;;
20802;SDS011;10562;-33.856;151.182;2023-05-07T03:17:21;6.93;;;1.17;;
20802;SDS011;10562;-33.856;151.182;2023-05-07T03:19:52;3.72;;;1.50;;
20802;SDS011;10562;-33.856;151.182;2023-05-07T03:22:22;7.00;;;1.80;;
20802;SDS011;10562;-33.856;151.182;2023-05-07T03:24:55;2.70;;;1.42;;
20802;SDS011;10562;-33.856;151.182;2023-05-07T03:27:26;1.90;;;1.23;;
20802;SDS011;10562;-33.856;151.182;2023-05-07T03:29:56;2.40;;;1.67;;
20802;SDS011;10562;-33.856;151.182;2023-05-07T03:32:28;1.80;;;1.65;;
20802;SDS011;10562;-33.856;151.182;2023-05-07T03:34:59;3.17;;;1.50;;
20802;SDS011;10562;-33.856;151.182;2023-05-07T03:37:30;2.28;;;1.23;;
20802;SDS011;10562;-33.856;151.182;2023-05-07T03:40:04;2.25;;;1.13;;
20802;SDS011;10562;-33.856;151.182;2023-05-07T03:42:36;5.15;;;1.30;;
20802;SDS011;10562;-33.856;151.182;2023-05-07T03:45:07;2.05;;;1.20;;
20802;SDS011;10562;-33.856;151.182;2023-05-07T03:47:38;2.38;;;1.30;;
20802;SDS011;10562;-33.856;151.182;2023-05-07T03:50:09;0.95;;;0.70;;
20802;SDS011;10562;-33.856;151.182;2023-05-07T03:52:40;3.42;;;1.10;;
20802;SDS011;10562;-33.856;151.182;2023-05-07T03:55:13;1.73;;;0.90;;
20802;SDS011;10562;-33.856;151.182;2023-05-07T03:57:44;1.60;;;0.68;;
20802;SDS011;10562;-33.856;151.182;2023-05-07T04:00:16;1.17;;;0.73;;
20802;SDS011;10562;-33.856;151.182;2023-05-07T04:02:47;1.48;;;0.80;;
20802;SDS011;10562;-33.856;151.182;2023-05-07T04:05:18;2.22;;;0.70;;
20802;SDS011;10562;-33.856;151.182;2023-05-07T04:07:49;1.42;;;0.85;;
20802;SDS011;10562;-33.856;151.182;2023-05-07T04:10:26;2.60;;;0.80;;
20802;SDS011;10562;-33.856;151.182;2023-05-07T04:12:58;2.20;;;0.80;;
20802;SDS011;10562;-33.856;151.182;2023-05-07T04:15:29;2.25;;;0.70;;
20802;SDS011;10562;-33.856;151.182;2023-05-07T04:18:04;2.38;;;0.80;;
20802;SDS011;10562;-33.856;151.182;2023-05-07T04:20:34;1.48;;;0.90;;
20802;SDS011;10562;-33.856;151.182;2023-05-07T04:23:05;2.72;;;0.65;;
20802;SDS011;10562;-33.856;151.182;2023-05-07T04:25:38;2.50;;;0.80;;
20802;SDS011;10562;-33.856;151.182;2023-05-07T04:28:09;1.48;;;0.70;;
20802;SDS011;10562;-33.856;151.182;2023-05-07T04:30:42;1.65;;;0.70;;
20802;SDS011;10562;-33.856;151.182;2023-05-07T04:33:14;2.50;;;0.73;;
20802;SDS011;10562;-33.856;151.182;2023-05-07T04:35:45;1.08;;;0.50;;
20802;SDS011;10562;-33.856;151.182;2023-05-07T04:38:15;2.38;;;0.52;;
20802;SDS011;10562;-33.856;151.182;2023-05-07T04:40:48;1.13;;;0.45;;
20802;SDS011;10562;-33.856;151.182;2023-05-07T04:43:19;2.83;;;0.70;;
20802;SDS011;10562;-33.856;151.182;2023-05-07T04:45:50;1.30;;;0.60;;
20802;SDS011;10562;-33.856;151.182;2023-05-07T04:48:21;2.45;;;0.50;;
20802;SDS011;10562;-33.856;151.182;2023-05-07T04:50:55;1.30;;;0.80;;
20802;SDS011;10562;-33.856;151.182;2023-05-07T04:53:25;1.23;;;0.75;;
20802;SDS011;10562;-33.856;151.182;2023-05-07T04:55:58;1.17;;;0.73;;
20802;SDS011;10562;-33.856;151.182;2023-05-07T04:58:29;1.83;;;0.70;;
20802;SDS011;10562;-33.856;151.182;2023-05-07T05:01:00;0.75;;;0.50;;
20802;SDS011;10562;-33.856;151.182;2023-05-07T05:03:34;0.80;;;0.50;;
20802;SDS011;10562;-33.856;151.182;2023-05-07T05:06:05;1.48;;;0.47;;
20802;SDS011;10562;-33.856;151.182;2023-05-07T05:08:36;1.75;;;0.60;;
20802;SDS011;10562;-33.856;151.182;2023-05-07T05:11:09;2.53;;;0.68;;
20802;SDS011;10562;-33.856;151.182;2023-05-07T05:13:40;1.52;;;0.50;;
20802;SDS011;10562;-33.856;151.182;2023-05-07T05:16:11;0.60;;;0.45;;
20802;SDS011;10562;-33.856;151.182;2023-05-07T05:18:41;1.55;;;0.60;;
20802;SDS011;10562;-33.856;151.182;2023-05-07T05:21:12;1.30;;;0.60;;
20802;SDS011;10562;-33.856;151.182;2023-05-07T05:23:43;1.50;;;0.55;;
20802;SDS011;10562;-33.856;151.182;2023-05-07T05:26:15;2.05;;;0.50;;
20802;SDS011;10562;-33.856;151.182;2023-05-07T05:28:47;2.60;;;0.68;;
20802;SDS011;10562;-33.856;151.182;2023-05-07T05:31:18;1.05;;;0.50;;
20802;SDS011;10562;-33.856;151.182;2023-05-07T05:33:48;2.05;;;0.73;;
20802;SDS011;10562;-33.856;151.182;2023-05-07T05:36:19;1.58;;;0.80;;
20802;SDS011;10562;-33.856;151.182;2023-05-07T05:38:50;1.20;;;0.60;;
20802;SDS011;10562;-33.856;151.182;2023-05-07T05:41:22;4.78;;;0.80;;
20802;SDS011;10562;-33.856;151.182;2023-05-07T05:43:53;1.55;;;0.90;;
20802;SDS011;10562;-33.856;151.182;2023-05-07T05:46:24;1.23;;;0.80;;
20802;SDS011;10562;-33.856;151.182;2023-05-07T05:48:55;2.00;;;0.70;;
20802;SDS011;10562;-33.856;151.182;2023-05-07T05:51:26;0.90;;;0.65;;
20802;SDS011;10562;-33.856;151.182;2023-05-07T05:53:56;1.60;;;0.75;;
20802;SDS011;10562;-33.856;151.182;2023-05-07T05:56:29;1.10;;;0.70;;
20802;SDS011;10562;-33.856;151.182;2023-05-07T05:59:00;1.10;;;0.70;;
20802;SDS011;10562;-33.856;151.182;2023-05-07T06:01:31;0.90;;;0.70;;
20802;SDS011;10562;-33.856;151.182;2023-05-07T06:04:02;3.47;;;0.82;;
20802;SDS011;10562;-33.856;151.182;2023-05-07T06:06:33;2.85;;;0.90;;
20802;SDS011;10562;-33.856;151.182;2023-05-07T06:09:04;1.05;;;0.70;;
20802;SDS011;10562;-33.856;151.182;2023-05-07T06:11:37;2.28;;;0.90;;
20802;SDS011;10562;-33.856;151.182;2023-05-07T06:14:08;1.60;;;1.00;;
20802;SDS011;10562;-33.856;151.182;2023-05-07T06:16:39;1.95;;;0.90;;
20802;SDS011;10562;-33.856;151.182;2023-05-07T06:19:10;1.50;;;1.10;;
20802;SDS011;10562;-33.856;151.182;2023-05-07T06:21:40;2.55;;;1.30;;
20802;SDS011;10562;-33.856;151.182;2023-05-07T06:24:11;2.35;;;1.20;;
20802;SDS011;10562;-33.856;151.182;2023-05-07T06:26:44;2.63;;;1.20;;
20802;SDS011;10562;-33.856;151.182;2023-05-07T06:29:15;1.50;;;1.17;;
20802;SDS011;10562;-33.856;151.182;2023-05-07T06:31:45;1.45;;;1.08;;
20802;SDS011;10562;-33.856;151.182;2023-05-07T06:34:16;1.10;;;1.00;;
20802;SDS011;10562;-33.856;151.182;2023-05-07T06:36:47;2.05;;;1.00;;
20802;SDS011;10562;-33.856;151.182;2023-05-07T06:39:17;1.85;;;1.20;;
20802;SDS011;10562;-33.856;151.182;2023-05-07T06:41:50;1.10;;;0.93;;
20802;SDS011;10562;-33.856;151.182;2023-05-07T06:44:21;2.28;;;1.30;;
20802;SDS011;10562;-33.856;151.182;2023-05-07T06:46:52;1.55;;;1.00;;
20802;SDS011;10562;-33.856;151.182;2023-05-07T06:49:22;1.85;;;1.30;;
20802;SDS011;10562;-33.856;151.182;2023-05-07T06:51:53;1.50;;;1.15;;
20802;SDS011;10562;-33.856;151.182;2023-05-07T06:54:24;6.03;;;1.30;;
20802;SDS011;10562;-33.856;151.182;2023-05-07T06:56:57;2.22;;;1.23;;
20802;SDS011;10562;-33.856;151.182;2023-05-07T06:59:27;1.50;;;1.20;;
20802;SDS011;10562;-33.856;151.182;2023-05-07T07:01:58;1.95;;;1.10;;
20802;SDS011;10562;-33.856;151.182;2023-05-07T07:04:29;2.33;;;1.40;;
20802;SDS011;10562;-33.856;151.182;2023-05-07T07:07:00;2.10;;;1.00;;
20802;SDS011;10562;-33.856;151.182;2023-05-07T07:09:31;1.58;;;1.00;;
20802;SDS011;10562;-33.856;151.182;2023-05-07T07:12:05;2.80;;;0.90;;
20802;SDS011;10562;-33.856;151.182;2023-05-07T07:14:35;1.05;;;0.70;;
20802;SDS011;10562;-33.856;151.182;2023-05-07T07:17:06;0.80;;;0.70;;
20802;SDS011;10562;-33.856;151.182;2023-05-07T07:19:37;1.85;;;0.90;;
20802;SDS011;10562;-33.856;151.182;2023-05-07T07:22:08;4.07;;;1.42;;
20802;SDS011;10562;-33.856;151.182;2023-05-07T07:24:39;2.05;;;1.23;;
20802;SDS011;10562;-33.856;151.182;2023-05-07T07:27:11;1.48;;;0.90;;
20802;SDS011;10562;-33.856;151.182;2023-05-07T07:29:42;1.77;;;0.98;;
20802;SDS011;10562;-33.856;151.182;2023-05-07T07:32:13;1.83;;;0.90;;
20802;SDS011;10562;-33.856;151.182;2023-05-07T07:34:44;1.35;;;0.98;;
20802;SDS011;10562;-33.856;151.182;2023-05-07T07:37:14;3.83;;;1.35;;
20802;SDS011;10562;-33.856;151.182;2023-05-07T07:39:45;2.08;;;0.80;;
20802;SDS011;10562;-33.856;151.182;2023-05-07T07:42:18;1.45;;;1.02;;
20802;SDS011;10562;-33.856;151.182;2023-05-07T07:44:48;1.67;;;1.00;;
20802;SDS011;10562;-33.856;151.182;2023-05-07T07:47:19;1.60;;;0.70;;
20802;SDS011;10562;-33.856;151.182;2023-05-07T07:49:50;1.38;;;0.80;;
20802;SDS011;10562;-33.856;151.182;2023-05-07T07:52:21;1.83;;;1.00;;
20802;SDS011;10562;-33.856;151.182;2023-05-07T07:54:51;1.38;;;0.90;;
20802;SDS011;10562;-33.856;151.182;2023-05-07T07:57:24;1.52;;;1.08;;
20802;SDS011;10562;-33.856;151.182;2023-05-07T07:59:55;3.28;;;1.10;;
20802;SDS011;10562;-33.856;151.182;2023-05-07T08:02:26;1.38;;;0.90;;
20802;SDS011;10562;-33.856;151.182;2023-05-07T08:04:56;1.00;;;0.90;;
20802;SDS011;10562;-33.856;151.182;2023-05-07T08:07:27;1.45;;;1.00;;
20802;SDS011;10562;-33.856;151.182;2023-05-07T08:09:58;1.92;;;1.05;;
20802;SDS011;10562;-33.856;151.182;2023-05-07T08:12:31;5.50;;;2.38;;
20802;SDS011;10562;-33.856;151.182;2023-05-07T08:15:02;4.85;;;1.70;;
20802;SDS011;10562;-33.856;151.182;2023-05-07T08:17:33;2.28;;;1.20;;
20802;SDS011;10562;-33.856;151.182;2023-05-07T08:20:04;3.38;;;1.15;;
20802;SDS011;10562;-33.856;151.182;2023-05-07T08:22:36;2.47;;;0.90;;
20802;SDS011;10562;-33.856;151.182;2023-05-07T08:25:07;1.58;;;0.85;;
20802;SDS011;10562;-33.856;151.182;2023-05-07T08:27:40;1.67;;;1.00;;
20802;SDS011;10562;-33.856;151.182;2023-05-07T08:30:11;0.73;;;0.70;;
20802;SDS011;10562;-33.856;151.182;2023-05-07T08:32:42;1.00;;;0.80;;
20802;SDS011;10562;-33.856;151.182;2023-05-07T08:35:13;1.33;;;0.80;;
20802;SDS011;10562;-33.856;151.182;2023-05-07T08:37:44;1.88;;;0.90;;
20802;SDS011;10562;-33.856;151.182;2023-05-07T08:40:15;2.67;;;1.00;;
20802;SDS011;10562;-33.856;151.182;2023-05-07T08:42:48;2.60;;;1.23;;
20802;SDS011;10562;-33.856;151.182;2023-05-07T08:45:21;4.05;;;1.20;;
20802;SDS011;10562;-33.856;151.182;2023-05-07T08:47:54;4.55;;;1.40;;
20802;SDS011;10562;-33.856;151.182;2023-05-07T08:50:28;2.75;;;1.40;;
20802;SDS011;10562;-33.856;151.182;2023-05-07T08:52:59;4.28;;;1.20;;
20802;SDS011;10562;-33.856;151.182;2023-05-07T08:55:31;2.47;;;1.00;;
20802;SDS011;10562;-33.856;151.182;2023-05-07T08:58:05;4.13;;;1.40;;
20802;SDS011;10562;-33.856;151.182;2023-05-07T09:00:36;3.20;;;1.60;;
20802;SDS011;10562;-33.856;151.182;2023-05-07T09:03:08;4.13;;;1.65;;
20802;SDS011;10562;-33.856;151.182;2023-05-07T09:05:40;4.50;;;1.38;;
20802;SDS011;10562;-33.856;151.182;2023-05-07T09:08:14;3.67;;;1.88;;
20802;SDS011;10562;-33.856;151.182;2023-05-07T09:10:45;3.47;;;1.70;;
20802;SDS011;10562;-33.856;151.182;2023-05-07T09:13:18;3.63;;;1.73;;
20802;SDS011;10562;-33.856;151.182;2023-05-07T09:15:49;3.28;;;1.30;;
20802;SDS011;10562;-33.856;151.182;2023-05-07T09:18:20;2.78;;;1.45;;
20802;SDS011;10562;-33.856;151.182;2023-05-07T09:20:52;3.58;;;1.77;;
20802;SDS011;10562;-33.856;151.182;2023-05-07T09:23:23;5.03;;;1.67;;
20802;SDS011;10562;-33.856;151.182;2023-05-07T09:25:54;3.95;;;1.30;;
20802;SDS011;10562;-33.856;151.182;2023-05-07T09:28:32;5.95;;;1.10;;
20802;SDS011;10562;-33.856;151.182;2023-05-07T09:31:03;2.80;;;1.20;;
20802;SDS011;10562;-33.856;151.182;2023-05-07T09:33:34;1.98;;;1.10;;
20802;SDS011;10562;-33.856;151.182;2023-05-07T09:36:06;1.52;;;0.93;;
20802;SDS011;10562;-33.856;151.182;2023-05-07T09:38:37;1.50;;;1.10;;
20802;SDS011;10562;-33.856;151.182;2023-05-07T09:41:09;2.50;;;1.05;;
20802;SDS011;10562;-33.856;151.182;2023-05-07T09:43:43;1.25;;;0.65;;
20802;SDS011;10562;-33.856;151.182;2023-05-07T09:46:14;0.82;;;0.60;;
20802;SDS011;10562;-33.856;151.182;2023-05-07T09:48:46;0.80;;;0.63;;
20802;SDS011;10562;-33.856;151.182;2023-05-07T09:51:22;5.35;;;0.80;;
20802;SDS011;10562;-33.856;151.182;2023-05-07T09:53:58;1.23;;;0.52;;
20802;SDS011;10562;-33.856;151.182;2023-05-07T09:56:31;0.57;;;0.57;;
20802;SDS011;10562;-33.856;151.182;2023-05-07T09:59:05;0.52;;;0.35;;
20802;SDS011;10562;-33.856;151.182;2023-05-07T10:01:38;0.43;;;0.40;;
20802;SDS011;10562;-33.856;151.182;2023-05-07T10:04:09;0.52;;;0.30;;
20802;SDS011;10562;-33.856;151.182;2023-05-07T10:06:41;0.40;;;0.40;;
20802;SDS011;10562;-33.856;151.182;2023-05-07T10:09:13;0.88;;;0.50;;
20802;SDS011;10562;-33.856;151.182;2023-05-07T10:11:44;0.50;;;0.40;;
20802;SDS011;10562;-33.856;151.182;2023-05-07T10:14:19;0.47;;;0.40;;
20802;SDS011;10562;-33.856;151.182;2023-05-07T10:16:50;0.40;;;0.40;;
20802;SDS011;10562;-33.856;151.182;2023-05-07T10:19:23;0.70;;;0.50;;
20802;SDS011;10562;-33.856;151.182;2023-05-07T10:21:54;0.95;;;0.40;;
20802;SDS011;10562;-33.856;151.182;2023-05-07T10:24:31;1.27;;;0.57;;
20802;SDS011;10562;-33.856;151.182;2023-05-07T10:27:03;0.75;;;0.50;;
20802;SDS011;10562;-33.856;151.182;2023-05-07T10:29:42;1.45;;;0.50;;
20802;SDS011;10562;-33.856;151.182;2023-05-07T10:32:24;0.85;;;0.50;;
20802;SDS011;10562;-33.856;151.182;2023-05-07T10:35:06;1.02;;;0.40;;
20802;SDS011;10562;-33.856;151.182;2023-05-07T10:37:42;1.13;;;0.52;;
20802;SDS011;10562;-33.856;151.182;2023-05-07T10:40:15;0.47;;;0.40;;
20802;SDS011;10562;-33.856;151.182;2023-05-07T10:42:55;0.40;;;0.40;;
20802;SDS011;10562;-33.856;151.182;2023-05-07T10:45:29;1.65;;;0.40;;
20802;SDS011;10562;-33.856;151.182;2023-05-07T10:48:07;0.50;;;0.40;;
20802;SDS011;10562;-33.856;151.182;2023-05-07T10:50:39;0.40;;;0.40;;
20802;SDS011;10562;-33.856;151.182;2023-05-07T10:53:24;0.50;;;0.40;;
20802;SDS011;10562;-33.856;151.182;2023-05-07T10:58:54;0.43;;;0.30;;
20802;SDS011;10562;-33.856;151.182;2023-05-07T11:01:53;0.45;;;0.30;;
20802;SDS011;10562;-33.856;151.182;2023-05-07T11:04:25;0.32;;;0.20;;
20802;SDS011;10562;-33.856;151.182;2023-05-07T11:09:59;2.00;;;0.30;;
20802;SDS011;10562;-33.856;151.182;2023-05-07T11:15:33;0.30;;;0.30;;
20802;SDS011;10562;-33.856;151.182;2023-05-07T11:18:13;0.30;;;0.30;;
20802;SDS011;10562;-33.856;151.182;2023-05-07T11:20:51;0.38;;;0.38;;
20802;SDS011;10562;-33.856;151.182;2023-05-07T11:26:45;1.48;;;0.50;;
20802;SDS011;10562;-33.856;151.182;2023-05-07T11:29:17;0.57;;;0.50;;
20802;SDS011;10562;-33.856;151.182;2023-05-07T11:31:49;1.02;;;0.50;;
20802;SDS011;10562;-33.856;151.182;2023-05-07T11:34:25;0.52;;;0.30;;
20802;SDS011;10562;-33.856;151.182;2023-05-07T11:36:56;0.50;;;0.40;;
20802;SDS011;10562;-33.856;151.182;2023-05-07T11:39:30;0.40;;;0.40;;
20802;SDS011;10562;-33.856;151.182;2023-05-07T11:42:02;0.60;;;0.30;;
20802;SDS011;10562;-33.856;151.182;2023-05-07T11:44:41;0.40;;;0.30;;
20802;SDS011;10562;-33.856;151.182;2023-05-07T11:47:17;2.38;;;0.30;;
20802;SDS011;10562;-33.856;151.182;2023-05-07T11:49:50;0.73;;;0.40;;
20802;SDS011;10562;-33.856;151.182;2023-05-07T11:52:22;0.32;;;0.32;;
20802;SDS011;10562;-33.856;151.182;2023-05-07T11:54:54;0.40;;;0.40;;
20802;SDS011;10562;-33.856;151.182;2023-05-07T11:57:25;0.63;;;0.60;;
20802;SDS011;10562;-33.856;151.182;2023-05-07T11:59:57;0.60;;;0.55;;
20802;SDS011;10562;-33.856;151.182;2023-05-07T12:02:28;1.52;;;0.80;;
20802;SDS011;10562;-33.856;151.182;2023-05-07T12:05:00;3.28;;;0.90;;
20802;SDS011;10562;-33.856;151.182;2023-05-07T12:07:32;1.30;;;0.90;;
20802;SDS011;10562;-33.856;151.182;2023-05-07T12:10:06;0.93;;;0.93;;
20802;SDS011;10562;-33.856;151.182;2023-05-07T12:12:40;4.20;;;1.30;;
20802;SDS011;10562;-33.856;151.182;2023-05-07T12:15:15;3.35;;;1.50;;
20802;SDS011;10562;-33.856;151.182;2023-05-07T12:17:46;2.13;;;1.80;;
20802;SDS011;10562;-33.856;151.182;2023-05-07T12:20:20;3.22;;;2.20;;
20802;SDS011;10562;-33.856;151.182;2023-05-07T12:22:51;2.90;;;2.70;;
20802;SDS011;10562;-33.856;151.182;2023-05-07T12:25:22;3.85;;;2.90;;
20802;SDS011;10562;-33.856;151.182;2023-05-07T12:27:53;4.47;;;3.72;;
20802;SDS011;10562;-33.856;151.182;2023-05-07T12:30:25;3.72;;;3.50;;
20802;SDS011;10562;-33.856;151.182;2023-05-07T12:32:56;4.65;;;4.25;;
20802;SDS011;10562;-33.856;151.182;2023-05-07T12:35:29;7.15;;;4.35;;
20802;SDS011;10562;-33.856;151.182;2023-05-07T12:38:00;6.95;;;6.18;;
20802;SDS011;10562;-33.856;151.182;2023-05-07T12:40:35;6.40;;;5.90;;
20802;SDS011;10562;-33.856;151.182;2023-05-07T12:43:07;11.52;;;10.52;;
20802;SDS011;10562;-33.856;151.182;2023-05-07T12:45:45;13.75;;;12.55;;
20802;SDS011;10562;-33.856;151.182;2023-05-07T12:48:17;16.60;;;15.20;;
20802;SDS011;10562;-33.856;151.182;2023-05-07T12:50:51;18.00;;;16.55;;
20802;SDS011;10562;-33.856;151.182;2023-05-07T12:53:24;13.30;;;12.25;;
20802;SDS011;10562;-33.856;151.182;2023-05-07T12:55:55;14.30;;;13.20;;
20802;SDS011;10562;-33.856;151.182;2023-05-07T12:58:29;15.65;;;14.38;;
20802;SDS011;10562;-33.856;151.182;2023-05-07T13:01:04;14.15;;;13.10;;
20802;SDS011;10562;-33.856;151.182;2023-05-07T13:03:37;14.13;;;13.00;;
20802;SDS011;10562;-33.856;151.182;2023-05-07T13:06:10;13.77;;;12.57;;
20802;SDS011;10562;-33.856;151.182;2023-05-07T13:08:41;11.27;;;10.20;;
20802;SDS011;10562;-33.856;151.182;2023-05-07T13:11:12;11.38;;;10.48;;
20802;SDS011;10562;-33.856;151.182;2023-05-07T13:13:43;9.30;;;8.60;;
20802;SDS011;10562;-33.856;151.182;2023-05-07T13:16:14;6.97;;;6.47;;
20802;SDS011;10562;-33.856;151.182;2023-05-07T13:18:44;3.60;;;3.30;;
20802;SDS011;10562;-33.856;151.182;2023-05-07T13:21:17;3.50;;;3.20;;
20802;SDS011;10562;-33.856;151.182;2023-05-07T13:23:48;3.28;;;2.97;;
20802;SDS011;10562;-33.856;151.182;2023-05-07T13:26:18;6.13;;;4.05;;
20802;SDS011;10562;-33.856;151.182;2023-05-07T13:28:49;2.78;;;2.58;;
20802;SDS011;10562;-33.856;151.182;2023-05-07T13:31:20;3.15;;;2.95;;
20802;SDS011;10562;-33.856;151.182;2023-05-07T13:33:51;3.80;;;3.10;;
20802;SDS011;10562;-33.856;151.182;2023-05-07T13:36:24;3.05;;;2.80;;
20802;SDS011;10562;-33.856;151.182;2023-05-07T13:38:55;3.50;;;3.20;;
20802;SDS011;10562;-33.856;151.182;2023-05-07T13:41:26;5.15;;;4.75;;
20802;SDS011;10562;-33.856;151.182;2023-05-07T13:43:57;3.75;;;3.45;;
20802;SDS011;10562;-33.856;151.182;2023-05-07T13:46:28;5.55;;;3.83;;
20802;SDS011;10562;-33.856;151.182;2023-05-07T13:48:59;4.03;;;3.40;;
20802;SDS011;10562;-33.856;151.182;2023-05-07T13:51:31;4.75;;;4.45;;
20802;SDS011;10562;-33.856;151.182;2023-05-07T13:54:02;4.38;;;4.07;;
20802;SDS011;10562;-33.856;151.182;2023-05-07T13:56:33;4.57;;;4.20;;
20802;SDS011;10562;-33.856;151.182;2023-05-07T13:59:04;4.25;;;3.95;;
20802;SDS011;10562;-33.856;151.182;2023-05-07T14:01:35;3.90;;;3.60;;
20802;SDS011;10562;-33.856;151.182;2023-05-07T14:04:06;3.60;;;3.40;;
20802;SDS011;10562;-33.856;151.182;2023-05-07T14:06:39;4.43;;;3.90;;
20802;SDS011;10562;-33.856;151.182;2023-05-07T14:09:10;5.07;;;4.68;;
20802;SDS011;10562;-33.856;151.182;2023-05-07T14:11:40;4.65;;;4.25;;
20802;SDS011;10562;-33.856;151.182;2023-05-07T14:14:13;4.82;;;4.50;;
20802;SDS011;10562;-33.856;151.182;2023-05-07T14:16:44;5.43;;;5.10;;
20802;SDS011;10562;-33.856;151.182;2023-05-07T14:19:15;5.45;;;5.05;;
20802;SDS011;10562;-33.856;151.182;2023-05-07T14:21:47;6.53;;;6.03;;
20802;SDS011;10562;-33.856;151.182;2023-05-07T14:24:18;5.60;;;5.20;;
20802;SDS011;10562;-33.856;151.182;2023-05-07T14:26:49;5.53;;;5.13;;
20802;SDS011;10562;-33.856;151.182;2023-05-07T14:29:20;6.32;;;5.93;;
20802;SDS011;10562;-33.856;151.182;2023-05-07T14:31:50;5.15;;;4.75;;
20802;SDS011;10562;-33.856;151.182;2023-05-07T14:34:21;5.90;;;5.30;;
20802;SDS011;10562;-33.856;151.182;2023-05-07T14:36:54;5.75;;;5.10;;
20802;SDS011;10562;-33.856;151.182;2023-05-07T14:39:25;4.57;;;4.20;;
20802;SDS011;10562;-33.856;151.182;2023-05-07T14:41:56;5.55;;;5.05;;
20802;SDS011;10562;-33.856;151.182;2023-05-07T14:44:27;4.95;;;4.63;;
20802;SDS011;10562;-33.856;151.182;2023-05-07T14:46:59;5.25;;;4.72;;